<?xml version="1.0" encoding="UTF-8" standalone="no" ?>
<gpx xmlns="http://www.topografix.com/GPX/1/1" xmlns:xsi="http://www.w3.org/2001/XMLSchema-instance" xsi:schemaLocation="http://www.topografix.com/GPX/1/1 http://www.topografix.com/GPX/1/1/gpx.xsd" version="1.1" creator="VisuGPX - https://www.visugpx.com">
  <metadata>
    <name>Trapinou le 27-08-09</name>
  </metadata>
  <trk>
    <name><![CDATA[Trapinou le 27-08-09]]></name>
    <trkseg>
      <trkpt lat="49.43943" lon="1.10477">
        <ele>14</ele>
        <time>2009-08-27T12:42:21.000Z</time>
      </trkpt>
      <trkpt lat="49.43862" lon="1.10765">
        <ele>10</ele>
        <time>2009-08-27T12:43:06.000Z</time>
      </trkpt>
      <trkpt lat="49.43788" lon="1.10612">
        <ele>11</ele>
        <time>2009-08-27T12:43:36.000Z</time>
      </trkpt>
      <trkpt lat="49.43685" lon="1.10848">
        <ele>15</ele>
        <time>2009-08-27T12:44:17.000Z</time>
      </trkpt>
      <trkpt lat="49.4364" lon="1.10992">
        <ele>27</ele>
        <time>2009-08-27T12:44:48.000Z</time>
      </trkpt>
      <trkpt lat="49.43637" lon="1.11168">
        <ele>27</ele>
        <time>2009-08-27T12:45:34.000Z</time>
      </trkpt>
      <trkpt lat="49.43605" lon="1.113">
        <ele>32</ele>
        <time>2009-08-27T12:46:08.000Z</time>
      </trkpt>
      <trkpt lat="49.43575" lon="1.11447">
        <ele>45</ele>
        <time>2009-08-27T12:46:47.000Z</time>
      </trkpt>
      <trkpt lat="49.43527" lon="1.1158">
        <ele>47</ele>
        <time>2009-08-27T12:47:18.000Z</time>
      </trkpt>
      <trkpt lat="49.43503" lon="1.11752">
        <ele>46</ele>
        <time>2009-08-27T12:47:48.000Z</time>
      </trkpt>
      <trkpt lat="49.43455" lon="1.11898">
        <ele>52</ele>
        <time>2009-08-27T12:48:18.000Z</time>
      </trkpt>
      <trkpt lat="49.43425" lon="1.12055">
        <ele>52</ele>
        <time>2009-08-27T12:48:53.000Z</time>
      </trkpt>
      <trkpt lat="49.43382" lon="1.12203">
        <ele>65</ele>
        <time>2009-08-27T12:49:24.000Z</time>
      </trkpt>
      <trkpt lat="49.43372" lon="1.12348">
        <ele>65</ele>
        <time>2009-08-27T12:49:52.000Z</time>
      </trkpt>
      <trkpt lat="49.43347" lon="1.1247">
        <ele>64</ele>
        <time>2009-08-27T12:50:16.000Z</time>
      </trkpt>
      <trkpt lat="49.43367" lon="1.12665">
        <ele>63</ele>
        <time>2009-08-27T12:50:46.000Z</time>
      </trkpt>
      <trkpt lat="49.43398" lon="1.1286">
        <ele>65</ele>
        <time>2009-08-27T12:51:12.000Z</time>
      </trkpt>
      <trkpt lat="49.43348" lon="1.12978">
        <ele>69</ele>
        <time>2009-08-27T12:52:10.000Z</time>
      </trkpt>
      <trkpt lat="49.43297" lon="1.12992">
        <ele>89</ele>
        <time>2009-08-27T12:52:58.000Z</time>
      </trkpt>
      <trkpt lat="49.43183" lon="1.13003">
        <ele>102</ele>
        <time>2009-08-27T12:54:25.000Z</time>
      </trkpt>
      <trkpt lat="49.43118" lon="1.12988">
        <ele>121</ele>
        <time>2009-08-27T12:55:19.000Z</time>
      </trkpt>
      <trkpt lat="49.43058" lon="1.12975">
        <ele>127</ele>
        <time>2009-08-27T12:56:07.000Z</time>
      </trkpt>
      <trkpt lat="49.42995" lon="1.1298">
        <ele>133</ele>
        <time>2009-08-27T12:56:52.000Z</time>
      </trkpt>
      <trkpt lat="49.43008" lon="1.13075">
        <ele>119</ele>
        <time>2009-08-27T12:57:28.000Z</time>
      </trkpt>
      <trkpt lat="49.43007" lon="1.1318">
        <ele>121</ele>
        <time>2009-08-27T12:58:20.000Z</time>
      </trkpt>
      <trkpt lat="49.43" lon="1.13252">
        <ele>131</ele>
        <time>2009-08-27T12:58:47.000Z</time>
      </trkpt>
      <trkpt lat="49.43057" lon="1.13365">
        <ele>129</ele>
        <time>2009-08-27T12:59:20.000Z</time>
      </trkpt>
      <trkpt lat="49.43112" lon="1.13515">
        <ele>125</ele>
        <time>2009-08-27T12:59:55.000Z</time>
      </trkpt>
      <trkpt lat="49.4309" lon="1.13635">
        <ele>129</ele>
        <time>2009-08-27T13:00:39.000Z</time>
      </trkpt>
      <trkpt lat="49.43093" lon="1.13747">
        <ele>134</ele>
        <time>2009-08-27T13:01:06.000Z</time>
      </trkpt>
      <trkpt lat="49.43135" lon="1.1385">
        <ele>129</ele>
        <time>2009-08-27T13:01:35.000Z</time>
      </trkpt>
      <trkpt lat="49.43165" lon="1.14015">
        <ele>130</ele>
        <time>2009-08-27T13:02:04.000Z</time>
      </trkpt>
      <trkpt lat="49.43195" lon="1.14102">
        <ele>109</ele>
        <time>2009-08-27T13:03:10.000Z</time>
      </trkpt>
      <trkpt lat="49.4325" lon="1.14158">
        <ele>92</ele>
        <time>2009-08-27T13:04:06.000Z</time>
      </trkpt>
      <trkpt lat="49.4322" lon="1.14203">
        <ele>98</ele>
        <time>2009-08-27T13:08:15.000Z</time>
      </trkpt>
      <trkpt lat="49.43158" lon="1.1427">
        <ele>105</ele>
        <time>2009-08-27T13:11:21.000Z</time>
      </trkpt>
      <trkpt lat="49.43107" lon="1.14305">
        <ele>103</ele>
        <time>2009-08-27T13:14:55.000Z</time>
      </trkpt>
      <trkpt lat="49.43057" lon="1.1426">
        <ele>114</ele>
        <time>2009-08-27T13:15:49.000Z</time>
      </trkpt>
      <trkpt lat="49.42997" lon="1.14178">
        <ele>134</ele>
        <time>2009-08-27T13:16:48.000Z</time>
      </trkpt>
      <trkpt lat="49.42863" lon="1.13987">
        <ele>136</ele>
        <time>2009-08-27T13:18:03.000Z</time>
      </trkpt>
      <trkpt lat="49.42778" lon="1.13873">
        <ele>138</ele>
        <time>2009-08-27T13:18:32.000Z</time>
      </trkpt>
      <trkpt lat="49.42663" lon="1.13785">
        <ele>142</ele>
        <time>2009-08-27T13:19:09.000Z</time>
      </trkpt>
      <trkpt lat="49.42585" lon="1.13833">
        <ele>140</ele>
        <time>2009-08-27T13:19:30.000Z</time>
      </trkpt>
      <trkpt lat="49.42605" lon="1.13965">
        <ele>139</ele>
        <time>2009-08-27T13:21:17.000Z</time>
      </trkpt>
      <trkpt lat="49.42638" lon="1.1418">
        <ele>140</ele>
        <time>2009-08-27T13:21:51.000Z</time>
      </trkpt>
      <trkpt lat="49.42718" lon="1.14467">
        <ele>138</ele>
        <time>2009-08-27T13:22:32.000Z</time>
      </trkpt>
      <trkpt lat="49.42757" lon="1.14708">
        <ele>139</ele>
        <time>2009-08-27T13:23:01.000Z</time>
      </trkpt>
      <trkpt lat="49.4278" lon="1.14782">
        <ele>137</ele>
        <time>2009-08-27T13:27:34.000Z</time>
      </trkpt>
      <trkpt lat="49.428" lon="1.14962">
        <ele>134</ele>
        <time>2009-08-27T13:28:14.000Z</time>
      </trkpt>
      <trkpt lat="49.42768" lon="1.15137">
        <ele>131</ele>
        <time>2009-08-27T13:28:38.000Z</time>
      </trkpt>
      <trkpt lat="49.42753" lon="1.15348">
        <ele>118</ele>
        <time>2009-08-27T13:29:05.000Z</time>
      </trkpt>
      <trkpt lat="49.42752" lon="1.15423">
        <ele>119</ele>
        <time>2009-08-27T13:29:22.000Z</time>
      </trkpt>
      <trkpt lat="49.4293" lon="1.15135">
        <ele>87</ele>
        <time>2009-08-27T13:30:17.000Z</time>
      </trkpt>
      <trkpt lat="49.42923" lon="1.15332">
        <ele>79</ele>
        <time>2009-08-27T13:30:43.000Z</time>
      </trkpt>
      <trkpt lat="49.42895" lon="1.15557">
        <ele>77</ele>
        <time>2009-08-27T13:32:01.000Z</time>
      </trkpt>
      <trkpt lat="49.42833" lon="1.15785">
        <ele>85</ele>
        <time>2009-08-27T13:32:53.000Z</time>
      </trkpt>
      <trkpt lat="49.42767" lon="1.15918">
        <ele>89</ele>
        <time>2009-08-27T13:33:31.000Z</time>
      </trkpt>
      <trkpt lat="49.42762" lon="1.1629">
        <ele>81</ele>
        <time>2009-08-27T13:34:23.000Z</time>
      </trkpt>
      <trkpt lat="49.42803" lon="1.16425">
        <ele>63</ele>
        <time>2009-08-27T13:34:43.000Z</time>
      </trkpt>
      <trkpt lat="49.42848" lon="1.16625">
        <ele>52</ele>
        <time>2009-08-27T13:35:02.000Z</time>
      </trkpt>
      <trkpt lat="49.42877" lon="1.16822">
        <ele>47</ele>
        <time>2009-08-27T13:35:26.000Z</time>
      </trkpt>
      <trkpt lat="49.42928" lon="1.16927">
        <ele>42</ele>
        <time>2009-08-27T13:35:55.000Z</time>
      </trkpt>
      <trkpt lat="49.43007" lon="1.16742">
        <ele>39</ele>
        <time>2009-08-27T13:36:37.000Z</time>
      </trkpt>
      <trkpt lat="49.43058" lon="1.16877">
        <ele>38</ele>
        <time>2009-08-27T13:37:14.000Z</time>
      </trkpt>
      <trkpt lat="49.43327" lon="1.16865">
        <ele>45</ele>
        <time>2009-08-27T13:38:26.000Z</time>
      </trkpt>
      <trkpt lat="49.43338" lon="1.16965">
        <ele>60</ele>
        <time>2009-08-27T13:39:20.000Z</time>
      </trkpt>
      <trkpt lat="49.43375" lon="1.16902">
        <ele>65</ele>
        <time>2009-08-27T13:40:24.000Z</time>
      </trkpt>
      <trkpt lat="49.43417" lon="1.1693">
        <ele>82</ele>
        <time>2009-08-27T13:41:35.000Z</time>
      </trkpt>
      <trkpt lat="49.43465" lon="1.16948">
        <ele>91</ele>
        <time>2009-08-27T13:42:49.000Z</time>
      </trkpt>
      <trkpt lat="49.43538" lon="1.16988">
        <ele>108</ele>
        <time>2009-08-27T13:43:57.000Z</time>
      </trkpt>
      <trkpt lat="49.43578" lon="1.17013">
        <ele>105</ele>
        <time>2009-08-27T13:44:36.000Z</time>
      </trkpt>
      <trkpt lat="49.4361" lon="1.17067">
        <ele>109</ele>
        <time>2009-08-27T13:45:11.000Z</time>
      </trkpt>
      <trkpt lat="49.43663" lon="1.17108">
        <ele>108</ele>
        <time>2009-08-27T13:45:47.000Z</time>
      </trkpt>
      <trkpt lat="49.437" lon="1.17152">
        <ele>122</ele>
        <time>2009-08-27T13:46:14.000Z</time>
      </trkpt>
      <trkpt lat="49.43735" lon="1.17113">
        <ele>128</ele>
        <time>2009-08-27T13:46:55.000Z</time>
      </trkpt>
      <trkpt lat="49.43747" lon="1.17018">
        <ele>134</ele>
        <time>2009-08-27T13:47:46.000Z</time>
      </trkpt>
      <trkpt lat="49.43798" lon="1.16983">
        <ele>138</ele>
        <time>2009-08-27T13:49:07.000Z</time>
      </trkpt>
      <trkpt lat="49.4382" lon="1.16885">
        <ele>138</ele>
        <time>2009-08-27T13:51:06.000Z</time>
      </trkpt>
      <trkpt lat="49.43823" lon="1.1677">
        <ele>139</ele>
        <time>2009-08-27T13:53:02.000Z</time>
      </trkpt>
      <trkpt lat="49.43817" lon="1.16687">
        <ele>137</ele>
        <time>2009-08-27T13:55:20.000Z</time>
      </trkpt>
      <trkpt lat="49.43812" lon="1.16568">
        <ele>143</ele>
        <time>2009-08-27T13:58:28.000Z</time>
      </trkpt>
      <trkpt lat="49.43818" lon="1.16363">
        <ele>145</ele>
        <time>2009-08-27T14:00:10.000Z</time>
      </trkpt>
      <trkpt lat="49.43818" lon="1.1623">
        <ele>144</ele>
        <time>2009-08-27T14:00:31.000Z</time>
      </trkpt>
      <trkpt lat="49.43817" lon="1.16102">
        <ele>144</ele>
        <time>2009-08-27T14:00:51.000Z</time>
      </trkpt>
      <trkpt lat="49.43903" lon="1.16123">
        <ele>141</ele>
        <time>2009-08-27T14:01:20.000Z</time>
      </trkpt>
      <trkpt lat="49.43975" lon="1.16287">
        <ele>139</ele>
        <time>2009-08-27T14:01:47.000Z</time>
      </trkpt>
      <trkpt lat="49.4403" lon="1.1636">
        <ele>135</ele>
        <time>2009-08-27T14:02:04.000Z</time>
      </trkpt>
      <trkpt lat="49.44067" lon="1.1611">
        <ele>113</ele>
        <time>2009-08-27T14:02:34.000Z</time>
      </trkpt>
      <trkpt lat="49.44078" lon="1.15905">
        <ele>105</ele>
        <time>2009-08-27T14:03:12.000Z</time>
      </trkpt>
      <trkpt lat="49.44073" lon="1.15722">
        <ele>120</ele>
        <time>2009-08-27T14:04:06.000Z</time>
      </trkpt>
      <trkpt lat="49.4404" lon="1.15662">
        <ele>121</ele>
        <time>2009-08-27T14:04:31.000Z</time>
      </trkpt>
      <trkpt lat="49.43965" lon="1.15553">
        <ele>128</ele>
        <time>2009-08-27T14:05:10.000Z</time>
      </trkpt>
      <trkpt lat="49.43878" lon="1.15515">
        <ele>134</ele>
        <time>2009-08-27T14:05:40.000Z</time>
      </trkpt>
      <trkpt lat="49.4382" lon="1.15533">
        <ele>135</ele>
        <time>2009-08-27T14:06:04.000Z</time>
      </trkpt>
      <trkpt lat="49.43768" lon="1.1553">
        <ele>133</ele>
        <time>2009-08-27T14:06:36.000Z</time>
      </trkpt>
      <trkpt lat="49.43697" lon="1.15592">
        <ele>128</ele>
        <time>2009-08-27T14:07:12.000Z</time>
      </trkpt>
      <trkpt lat="49.4361" lon="1.15782">
        <ele>130</ele>
        <time>2009-08-27T14:08:02.000Z</time>
      </trkpt>
      <trkpt lat="49.43583" lon="1.1584">
        <ele>125</ele>
        <time>2009-08-27T14:08:17.000Z</time>
      </trkpt>
      <trkpt lat="49.43552" lon="1.15908">
        <ele>120</ele>
        <time>2009-08-27T14:08:49.000Z</time>
      </trkpt>
      <trkpt lat="49.43517" lon="1.16042">
        <ele>126</ele>
        <time>2009-08-27T14:09:29.000Z</time>
      </trkpt>
      <trkpt lat="49.4348" lon="1.16202">
        <ele>117</ele>
        <time>2009-08-27T14:10:05.000Z</time>
      </trkpt>
      <trkpt lat="49.43453" lon="1.16425">
        <ele>120</ele>
        <time>2009-08-27T14:10:53.000Z</time>
      </trkpt>
      <trkpt lat="49.43452" lon="1.165">
        <ele>121</ele>
        <time>2009-08-27T14:11:18.000Z</time>
      </trkpt>
      <trkpt lat="49.43468" lon="1.1657">
        <ele>125</ele>
        <time>2009-08-27T14:11:42.000Z</time>
      </trkpt>
      <trkpt lat="49.43433" lon="1.16695">
        <ele>108</ele>
        <time>2009-08-27T14:12:29.000Z</time>
      </trkpt>
      <trkpt lat="49.43395" lon="1.16753">
        <ele>79</ele>
        <time>2009-08-27T14:12:55.000Z</time>
      </trkpt>
      <trkpt lat="49.43413" lon="1.1683">
        <ele>78</ele>
        <time>2009-08-27T14:14:04.000Z</time>
      </trkpt>
      <trkpt lat="49.43338" lon="1.16928">
        <ele>57</ele>
        <time>2009-08-27T14:14:56.000Z</time>
      </trkpt>
      <trkpt lat="49.43197" lon="1.1688">
        <ele>33</ele>
        <time>2009-08-27T14:16:00.000Z</time>
      </trkpt>
      <trkpt lat="49.43068" lon="1.16883">
        <ele>38</ele>
        <time>2009-08-27T14:17:16.000Z</time>
      </trkpt>
      <trkpt lat="49.43028" lon="1.16727">
        <ele>37</ele>
        <time>2009-08-27T14:19:11.000Z</time>
      </trkpt>
      <trkpt lat="49.42943" lon="1.16927">
        <ele>41</ele>
        <time>2009-08-27T14:20:01.000Z</time>
      </trkpt>
      <trkpt lat="49.4287" lon="1.16833">
        <ele>47</ele>
        <time>2009-08-27T14:20:55.000Z</time>
      </trkpt>
      <trkpt lat="49.42823" lon="1.16912">
        <ele>48</ele>
        <time>2009-08-27T14:21:25.000Z</time>
      </trkpt>
      <trkpt lat="49.42743" lon="1.16872">
        <ele>58</ele>
        <time>2009-08-27T14:22:41.000Z</time>
      </trkpt>
      <trkpt lat="49.427" lon="1.16885">
        <ele>60</ele>
        <time>2009-08-27T14:23:19.000Z</time>
      </trkpt>
      <trkpt lat="49.42655" lon="1.16878">
        <ele>71</ele>
        <time>2009-08-27T14:24:08.000Z</time>
      </trkpt>
      <trkpt lat="49.42613" lon="1.16843">
        <ele>77</ele>
        <time>2009-08-27T14:24:55.000Z</time>
      </trkpt>
      <trkpt lat="49.42555" lon="1.16833">
        <ele>90</ele>
        <time>2009-08-27T14:25:39.000Z</time>
      </trkpt>
      <trkpt lat="49.42477" lon="1.16817">
        <ele>107</ele>
        <time>2009-08-27T14:26:43.000Z</time>
      </trkpt>
      <trkpt lat="49.42403" lon="1.16795">
        <ele>119</ele>
        <time>2009-08-27T14:27:26.000Z</time>
      </trkpt>
      <trkpt lat="49.42328" lon="1.16763">
        <ele>128</ele>
        <time>2009-08-27T14:28:24.000Z</time>
      </trkpt>
      <trkpt lat="49.42263" lon="1.16728">
        <ele>130</ele>
        <time>2009-08-27T14:29:06.000Z</time>
      </trkpt>
      <trkpt lat="49.42173" lon="1.16705">
        <ele>135</ele>
        <time>2009-08-27T14:29:42.000Z</time>
      </trkpt>
      <trkpt lat="49.42015" lon="1.16727">
        <ele>140</ele>
        <time>2009-08-27T14:30:30.000Z</time>
      </trkpt>
      <trkpt lat="49.41805" lon="1.16538">
        <ele>142</ele>
        <time>2009-08-27T14:31:08.000Z</time>
      </trkpt>
      <trkpt lat="49.41665" lon="1.16475">
        <ele>143</ele>
        <time>2009-08-27T14:31:31.000Z</time>
      </trkpt>
      <trkpt lat="49.41505" lon="1.16343">
        <ele>143</ele>
        <time>2009-08-27T14:32:02.000Z</time>
      </trkpt>
      <trkpt lat="49.41445" lon="1.16072">
        <ele>140</ele>
        <time>2009-08-27T14:32:37.000Z</time>
      </trkpt>
      <trkpt lat="49.41288" lon="1.16118">
        <ele>146</ele>
        <time>2009-08-27T14:33:15.000Z</time>
      </trkpt>
      <trkpt lat="49.4119" lon="1.16407">
        <ele>150</ele>
        <time>2009-08-27T14:33:55.000Z</time>
      </trkpt>
      <trkpt lat="49.41047" lon="1.16995">
        <ele>158</ele>
        <time>2009-08-27T14:35:18.000Z</time>
      </trkpt>
      <trkpt lat="49.41068" lon="1.17213">
        <ele>158</ele>
        <time>2009-08-27T14:35:41.000Z</time>
      </trkpt>
      <trkpt lat="49.40757" lon="1.17647">
        <ele>157</ele>
        <time>2009-08-27T14:36:45.000Z</time>
      </trkpt>
      <trkpt lat="49.40692" lon="1.17608">
        <ele>158</ele>
        <time>2009-08-27T14:37:02.000Z</time>
      </trkpt>
      <trkpt lat="49.40502" lon="1.1831">
        <ele>158</ele>
        <time>2009-08-27T14:38:36.000Z</time>
      </trkpt>
      <trkpt lat="49.40307" lon="1.1822">
        <ele>155</ele>
        <time>2009-08-27T14:39:11.000Z</time>
      </trkpt>
      <trkpt lat="49.40178" lon="1.18212">
        <ele>152</ele>
        <time>2009-08-27T14:39:49.000Z</time>
      </trkpt>
      <trkpt lat="49.40065" lon="1.18208">
        <ele>154</ele>
        <time>2009-08-27T14:40:22.000Z</time>
      </trkpt>
      <trkpt lat="49.4001" lon="1.1809">
        <ele>153</ele>
        <time>2009-08-27T14:41:11.000Z</time>
      </trkpt>
      <trkpt lat="49.3999" lon="1.18005">
        <ele>152</ele>
        <time>2009-08-27T14:41:37.000Z</time>
      </trkpt>
      <trkpt lat="49.39628" lon="1.17613">
        <ele>147</ele>
        <time>2009-08-27T14:43:32.000Z</time>
      </trkpt>
      <trkpt lat="49.39508" lon="1.17697">
        <ele>144</ele>
        <time>2009-08-27T14:43:58.000Z</time>
      </trkpt>
      <trkpt lat="49.39425" lon="1.17638">
        <ele>142</ele>
        <time>2009-08-27T14:44:18.000Z</time>
      </trkpt>
      <trkpt lat="49.39345" lon="1.17453">
        <ele>140</ele>
        <time>2009-08-27T14:44:50.000Z</time>
      </trkpt>
      <trkpt lat="49.39275" lon="1.17413">
        <ele>142</ele>
        <time>2009-08-27T14:45:17.000Z</time>
      </trkpt>
      <trkpt lat="49.39365" lon="1.17178">
        <ele>141</ele>
        <time>2009-08-27T14:45:57.000Z</time>
      </trkpt>
      <trkpt lat="49.39265" lon="1.17115">
        <ele>145</ele>
        <time>2009-08-27T14:46:28.000Z</time>
      </trkpt>
      <trkpt lat="49.38958" lon="1.16965">
        <ele>145</ele>
        <time>2009-08-27T14:47:38.000Z</time>
      </trkpt>
      <trkpt lat="49.38848" lon="1.16852">
        <ele>144</ele>
        <time>2009-08-27T14:48:03.000Z</time>
      </trkpt>
      <trkpt lat="49.38785" lon="1.16602">
        <ele>146</ele>
        <time>2009-08-27T14:48:32.000Z</time>
      </trkpt>
      <trkpt lat="49.38623" lon="1.16248">
        <ele>146</ele>
        <time>2009-08-27T14:49:13.000Z</time>
      </trkpt>
      <trkpt lat="49.38462" lon="1.16053">
        <ele>151</ele>
        <time>2009-08-27T14:49:47.000Z</time>
      </trkpt>
      <trkpt lat="49.38328" lon="1.15767">
        <ele>151</ele>
        <time>2009-08-27T14:50:26.000Z</time>
      </trkpt>
      <trkpt lat="49.38652" lon="1.15855">
        <ele>142</ele>
        <time>2009-08-27T14:51:51.000Z</time>
      </trkpt>
      <trkpt lat="49.38778" lon="1.15972">
        <ele>112</ele>
        <time>2009-08-27T14:52:36.000Z</time>
      </trkpt>
      <trkpt lat="49.38565" lon="1.14925">
        <ele>80</ele>
        <time>2009-08-27T14:55:38.000Z</time>
      </trkpt>
      <trkpt lat="49.38425" lon="1.14923">
        <ele>73</ele>
        <time>2009-08-27T14:57:29.000Z</time>
      </trkpt>
      <trkpt lat="49.3791" lon="1.14175">
        <ele>51</ele>
        <time>2009-08-27T14:57:32.000Z</time>
      </trkpt>
      <trkpt lat="49.37818" lon="1.14073">
        <ele>40</ele>
        <time>2009-08-27T14:57:55.000Z</time>
      </trkpt>
      <trkpt lat="49.37827" lon="1.14003">
        <ele>44</ele>
        <time>2009-08-27T14:58:35.000Z</time>
      </trkpt>
      <trkpt lat="49.3786" lon="1.13897">
        <ele>77</ele>
        <time>2009-08-27T14:59:51.000Z</time>
      </trkpt>
      <trkpt lat="49.37795" lon="1.13887">
        <ele>67</ele>
        <time>2009-08-27T15:01:25.000Z</time>
      </trkpt>
      <trkpt lat="49.37595" lon="1.13862">
        <ele>50</ele>
        <time>2009-08-27T15:03:39.000Z</time>
      </trkpt>
      <trkpt lat="49.37472" lon="1.13797">
        <ele>40</ele>
        <time>2009-08-27T15:03:55.000Z</time>
      </trkpt>
      <trkpt lat="49.37455" lon="1.1373">
        <ele>46</ele>
        <time>2009-08-27T15:07:23.000Z</time>
      </trkpt>
      <trkpt lat="49.37438" lon="1.13587">
        <ele>63</ele>
        <time>2009-08-27T15:09:11.000Z</time>
      </trkpt>
      <trkpt lat="49.37427" lon="1.13452">
        <ele>97</ele>
        <time>2009-08-27T15:10:27.000Z</time>
      </trkpt>
      <trkpt lat="49.37378" lon="1.13212">
        <ele>103</ele>
        <time>2009-08-27T15:11:49.000Z</time>
      </trkpt>
      <trkpt lat="49.37365" lon="1.13097">
        <ele>108</ele>
        <time>2009-08-27T15:12:39.000Z</time>
      </trkpt>
      <trkpt lat="49.3735" lon="1.13027">
        <ele>112</ele>
        <time>2009-08-27T15:13:08.000Z</time>
      </trkpt>
      <trkpt lat="49.37405" lon="1.13">
        <ele>123</ele>
        <time>2009-08-27T15:17:43.000Z</time>
      </trkpt>
      <trkpt lat="49.37483" lon="1.13033">
        <ele>128</ele>
        <time>2009-08-27T15:21:07.000Z</time>
      </trkpt>
      <trkpt lat="49.3756" lon="1.1318">
        <ele>130</ele>
        <time>2009-08-27T15:21:49.000Z</time>
      </trkpt>
      <trkpt lat="49.37733" lon="1.1327">
        <ele>131</ele>
        <time>2009-08-27T15:22:21.000Z</time>
      </trkpt>
      <trkpt lat="49.37843" lon="1.13307">
        <ele>131</ele>
        <time>2009-08-27T15:22:53.000Z</time>
      </trkpt>
      <trkpt lat="49.37937" lon="1.1331">
        <ele>134</ele>
        <time>2009-08-27T15:23:24.000Z</time>
      </trkpt>
      <trkpt lat="49.3806" lon="1.13303">
        <ele>136</ele>
        <time>2009-08-27T15:23:58.000Z</time>
      </trkpt>
      <trkpt lat="49.3811" lon="1.13353">
        <ele>135</ele>
        <time>2009-08-27T15:24:12.000Z</time>
      </trkpt>
      <trkpt lat="49.38222" lon="1.13383">
        <ele>132</ele>
        <time>2009-08-27T15:24:45.000Z</time>
      </trkpt>
      <trkpt lat="49.3835" lon="1.13392">
        <ele>132</ele>
        <time>2009-08-27T15:25:20.000Z</time>
      </trkpt>
      <trkpt lat="49.38593" lon="1.13598">
        <ele>132</ele>
        <time>2009-08-27T15:26:18.000Z</time>
      </trkpt>
      <trkpt lat="49.3878" lon="1.13712">
        <ele>136</ele>
        <time>2009-08-27T15:27:01.000Z</time>
      </trkpt>
      <trkpt lat="49.3903" lon="1.14458">
        <ele>146</ele>
        <time>2009-08-27T15:28:54.000Z</time>
      </trkpt>
      <trkpt lat="49.39142" lon="1.14462">
        <ele>149</ele>
        <time>2009-08-27T15:29:17.000Z</time>
      </trkpt>
      <trkpt lat="49.39323" lon="1.13995">
        <ele>145</ele>
        <time>2009-08-27T15:30:20.000Z</time>
      </trkpt>
      <trkpt lat="49.39468" lon="1.13748">
        <ele>135</ele>
        <time>2009-08-27T15:30:44.000Z</time>
      </trkpt>
      <trkpt lat="49.39698" lon="1.13472">
        <ele>123</ele>
        <time>2009-08-27T15:31:19.000Z</time>
      </trkpt>
      <trkpt lat="49.39772" lon="1.13455">
        <ele>106</ele>
        <time>2009-08-27T15:31:47.000Z</time>
      </trkpt>
      <trkpt lat="49.39822" lon="1.13348">
        <ele>101</ele>
        <time>2009-08-27T15:32:15.000Z</time>
      </trkpt>
      <trkpt lat="49.399" lon="1.13288">
        <ele>78</ele>
        <time>2009-08-27T15:32:53.000Z</time>
      </trkpt>
      <trkpt lat="49.40005" lon="1.13135">
        <ele>55</ele>
        <time>2009-08-27T15:33:30.000Z</time>
      </trkpt>
      <trkpt lat="49.40003" lon="1.12795">
        <ele>23</ele>
        <time>2009-08-27T15:34:24.000Z</time>
      </trkpt>
      <trkpt lat="49.39952" lon="1.12662">
        <ele>17</ele>
        <time>2009-08-27T15:34:41.000Z</time>
      </trkpt>
      <trkpt lat="49.40008" lon="1.12603">
        <ele>17</ele>
        <time>2009-08-27T15:35:13.000Z</time>
      </trkpt>
      <trkpt lat="49.4007" lon="1.12588">
        <ele>23</ele>
        <time>2009-08-27T15:40:02.000Z</time>
      </trkpt>
      <trkpt lat="49.40128" lon="1.12588">
        <ele>33</ele>
        <time>2009-08-27T15:40:55.000Z</time>
      </trkpt>
      <trkpt lat="49.4026" lon="1.126">
        <ele>48</ele>
        <time>2009-08-27T15:42:19.000Z</time>
      </trkpt>
      <trkpt lat="49.40378" lon="1.12607">
        <ele>65</ele>
        <time>2009-08-27T15:43:38.000Z</time>
      </trkpt>
      <trkpt lat="49.40428" lon="1.1272">
        <ele>93</ele>
        <time>2009-08-27T15:44:42.000Z</time>
      </trkpt>
      <trkpt lat="49.40487" lon="1.12777">
        <ele>103</ele>
        <time>2009-08-27T15:45:45.000Z</time>
      </trkpt>
      <trkpt lat="49.40548" lon="1.12812">
        <ele>127</ele>
        <time>2009-08-27T15:46:44.000Z</time>
      </trkpt>
      <trkpt lat="49.40627" lon="1.129">
        <ele>140</ele>
        <time>2009-08-27T15:47:58.000Z</time>
      </trkpt>
      <trkpt lat="49.40688" lon="1.13042">
        <ele>143</ele>
        <time>2009-08-27T15:50:21.000Z</time>
      </trkpt>
      <trkpt lat="49.40708" lon="1.13103">
        <ele>142</ele>
        <time>2009-08-27T15:53:33.000Z</time>
      </trkpt>
      <trkpt lat="49.40938" lon="1.13133">
        <ele>150</ele>
        <time>2009-08-27T15:55:57.000Z</time>
      </trkpt>
      <trkpt lat="49.41057" lon="1.13328">
        <ele>153</ele>
        <time>2009-08-27T15:56:37.000Z</time>
      </trkpt>
      <trkpt lat="49.41093" lon="1.13447">
        <ele>154</ele>
        <time>2009-08-27T15:56:58.000Z</time>
      </trkpt>
      <trkpt lat="49.41427" lon="1.13253">
        <ele>149</ele>
        <time>2009-08-27T15:58:08.000Z</time>
      </trkpt>
      <trkpt lat="49.41605" lon="1.13155">
        <ele>147</ele>
        <time>2009-08-27T15:58:46.000Z</time>
      </trkpt>
      <trkpt lat="49.41768" lon="1.12963">
        <ele>149</ele>
        <time>2009-08-27T15:59:36.000Z</time>
      </trkpt>
      <trkpt lat="49.41877" lon="1.12695">
        <ele>148</ele>
        <time>2009-08-27T16:00:19.000Z</time>
      </trkpt>
      <trkpt lat="49.4202" lon="1.12517">
        <ele>149</ele>
        <time>2009-08-27T16:00:57.000Z</time>
      </trkpt>
      <trkpt lat="49.42135" lon="1.12487">
        <ele>148</ele>
        <time>2009-08-27T16:01:20.000Z</time>
      </trkpt>
      <trkpt lat="49.42195" lon="1.1242">
        <ele>147</ele>
        <time>2009-08-27T16:01:38.000Z</time>
      </trkpt>
      <trkpt lat="49.42165" lon="1.12185">
        <ele>144</ele>
        <time>2009-08-27T16:02:17.000Z</time>
      </trkpt>
      <trkpt lat="49.42273" lon="1.12027">
        <ele>136</ele>
        <time>2009-08-27T16:02:54.000Z</time>
      </trkpt>
      <trkpt lat="49.42343" lon="1.1179">
        <ele>110</ele>
        <time>2009-08-27T16:03:22.000Z</time>
      </trkpt>
      <trkpt lat="49.42452" lon="1.1166">
        <ele>91</ele>
        <time>2009-08-27T16:04:15.000Z</time>
      </trkpt>
      <trkpt lat="49.42683" lon="1.11552">
        <ele>68</ele>
        <time>2009-08-27T16:04:19.000Z</time>
      </trkpt>
      <trkpt lat="49.42722" lon="1.11695">
        <ele>76</ele>
        <time>2009-08-27T16:04:38.000Z</time>
      </trkpt>
      <trkpt lat="49.42823" lon="1.11657">
        <ele>70</ele>
        <time>2009-08-27T16:05:07.000Z</time>
      </trkpt>
      <trkpt lat="49.42905" lon="1.11345">
        <ele>54</ele>
        <time>2009-08-27T16:05:36.000Z</time>
      </trkpt>
      <trkpt lat="49.433" lon="1.10803">
        <ele>35</ele>
        <time>2009-08-27T16:06:39.000Z</time>
      </trkpt>
      <trkpt lat="49.43438" lon="1.1065">
        <ele>24</ele>
        <time>2009-08-27T16:07:02.000Z</time>
      </trkpt>
      <trkpt lat="49.43622" lon="1.1089">
        <ele>25</ele>
        <time>2009-08-27T16:07:47.000Z</time>
      </trkpt>
      <trkpt lat="49.43623" lon="1.11027">
        <ele>31</ele>
        <time>2009-08-27T16:08:00.000Z</time>
      </trkpt>
      <trkpt lat="49.43618" lon="1.11192">
        <ele>30</ele>
        <time>2009-08-27T16:08:30.000Z</time>
      </trkpt>
      <trkpt lat="49.43732" lon="1.10763">
        <ele>12</ele>
        <time>2009-08-27T16:09:02.000Z</time>
      </trkpt>
      <trkpt lat="49.43802" lon="1.10583">
        <ele>10</ele>
        <time>2009-08-27T16:09:27.000Z</time>
      </trkpt>
      <trkpt lat="49.43862" lon="1.1033">
        <ele>11</ele>
        <time>2009-08-27T16:10:06.000Z</time>
      </trkpt>
      <trkpt lat="49.43915" lon="1.10163">
        <ele>11</ele>
        <time>2009-08-27T16:10:32.000Z</time>
      </trkpt>
      <trkpt lat="49.4396" lon="1.10008">
        <ele>15</ele>
        <time>2009-08-27T16:10:56.000Z</time>
      </trkpt>
      <trkpt lat="49.43967" lon="1.09898">
        <ele>17</ele>
        <time>2009-08-27T16:11:15.000Z</time>
      </trkpt>
      <trkpt lat="49.43952" lon="1.09757">
        <ele>18</ele>
        <time>2009-08-27T16:11:51.000Z</time>
      </trkpt>
      <trkpt lat="49.44088" lon="1.09495">
        <ele>23</ele>
        <time>2009-08-27T16:13:23.000Z</time>
      </trkpt>
      <trkpt lat="49.4425" lon="1.09503">
        <ele>25</ele>
        <time>2009-08-27T16:14:35.000Z</time>
      </trkpt>
      <trkpt lat="49.44338" lon="1.09577">
        <ele>26</ele>
        <time>2009-08-27T16:15:22.000Z</time>
      </trkpt>
      <trkpt lat="49.44383" lon="1.09592">
        <ele>27</ele>
        <time>2009-08-27T16:15:34.000Z</time>
      </trkpt>
      <trkpt lat="49.4448" lon="1.09698">
        <ele>30</ele>
        <time>2009-08-27T16:16:26.000Z</time>
      </trkpt>
      <trkpt lat="49.44582" lon="1.09755">
        <ele>35</ele>
        <time>2009-08-27T16:17:16.000Z</time>
      </trkpt>
      <trkpt lat="49.446" lon="1.09722">
        <ele>37</ele>
        <time>2009-08-27T16:17:39.000Z</time>
      </trkpt>
    </trkseg>
  </trk>
</gpx>